sensor_id;sensor_type;location;lat;lon;timestamp;noise_LAeq;noise_LA_min;noise_LA_max;noise_LA01;noise_LA95
79288;Laerm;68737;53.946;27.634;2023-05-10T00:01:45;43.674271;37.162773;55.484543;;
79288;Laerm;68737;53.946;27.634;2023-05-10T00:04:15;42.742188;37.347862;56.919128;;
79288;Laerm;68737;53.946;27.634;2023-05-10T00:06:45;41.044151;36.992332;53.314011;;
79288;Laerm;68737;53.946;27.634;2023-05-10T00:09:15;43.227966;36.997147;64.925934;;
79288;Laerm;68737;53.946;27.634;2023-05-10T00:11:45;40.670349;36.881287;51.593803;;
79288;Laerm;68737;53.946;27.634;2023-05-10T00:14:16;42.857117;36.846870;54.049591;;
79288;Laerm;68737;53.946;27.634;2023-05-10T00:16:45;39.501724;36.807510;44.604485;;
79288;Laerm;68737;53.946;27.634;2023-05-10T00:19:15;39.329231;37.128143;46.700462;;
79288;Laerm;68737;53.946;27.634;2023-05-10T00:21:45;38.801712;36.556854;46.334282;;
79288;Laerm;68737;53.946;27.634;2023-05-10T00:24:16;47.714546;36.562897;61.641544;;
79288;Laerm;68737;53.946;27.634;2023-05-10T00:26:45;41.829346;37.081665;54.271683;;
79288;Laerm;68737;53.946;27.634;2023-05-10T00:29:15;39.832047;36.448555;69.324936;;
79288;Laerm;68737;53.946;27.634;2023-05-10T00:31:45;38.570267;36.396400;49.205772;;
79288;Laerm;68737;53.946;27.634;2023-05-10T00:34:15;45.957176;36.615448;60.202286;;
79288;Laerm;68737;53.946;27.634;2023-05-10T00:36:45;41.842384;37.035057;55.406334;;
79288;Laerm;68737;53.946;27.634;2023-05-10T00:39:15;39.635437;36.168427;51.480003;;
79288;Laerm;68737;53.946;27.634;2023-05-10T00:41:45;43.686981;37.131622;57.967575;;
79288;Laerm;68737;53.946;27.634;2023-05-10T00:44:15;39.333794;36.815773;46.516731;;
79288;Laerm;68737;53.946;27.634;2023-05-10T00:46:46;42.808128;37.062416;56.069870;;
79288;Laerm;68737;53.946;27.634;2023-05-10T00:49:15;41.254089;37.096855;50.436493;;
79288;Laerm;68737;53.946;27.634;2023-05-10T00:51:45;42.933792;36.815666;58.282471;;
79288;Laerm;68737;53.946;27.634;2023-05-10T00:54:15;41.895134;37.560791;57.091888;;
79288;Laerm;68737;53.946;27.634;2023-05-10T00:56:45;41.087158;37.182808;49.506477;;
79288;Laerm;68737;53.946;27.634;2023-05-10T00:59:16;39.166603;36.917656;42.718658;;
79288;Laerm;68737;53.946;27.634;2023-05-10T01:01:46;41.787048;37.233681;54.366203;;
79288;Laerm;68737;53.946;27.634;2023-05-10T01:04:15;42.342384;37.216331;54.563385;;
79288;Laerm;68737;53.946;27.634;2023-05-10T01:06:45;44.291718;38.064537;54.389114;;
79288;Laerm;68737;53.946;27.634;2023-05-10T01:09:15;46.844696;37.506027;62.826969;;
79288;Laerm;68737;53.946;27.634;2023-05-10T01:11:45;42.004745;36.975220;55.645622;;
79288;Laerm;68737;53.946;27.634;2023-05-10T01:14:16;42.713097;37.601357;53.420570;;
79288;Laerm;68737;53.946;27.634;2023-05-10T01:16:46;40.548500;37.765503;45.251923;;
79288;Laerm;68737;53.946;27.634;2023-05-10T01:24:21;45.716568;37.897346;60.215408;;
79288;Laerm;68737;53.946;27.634;2023-05-10T01:36:48;54.519455;38.286064;73.340912;;
79288;Laerm;68737;53.946;27.634;2023-05-10T01:46:48;46.499191;37.870132;61.370216;;
79288;Laerm;68737;53.946;27.634;2023-05-10T01:49:18;44.013359;38.127174;53.532967;;
79288;Laerm;68737;53.946;27.634;2023-05-10T01:51:47;50.082512;38.312866;68.019417;;
79288;Laerm;68737;53.946;27.634;2023-05-10T01:54:16;50.568886;38.387413;70.446419;;
79288;Laerm;68737;53.946;27.634;2023-05-10T01:56:47;48.250610;38.899773;62.651573;;
79288;Laerm;68737;53.946;27.634;2023-05-10T01:59:16;44.746429;38.262779;64.084145;;
79288;Laerm;68737;53.946;27.634;2023-05-10T02:01:46;43.153221;38.397484;51.725792;;
79288;Laerm;68737;53.946;27.634;2023-05-10T02:04:16;45.541107;38.492691;58.020409;;
79288;Laerm;68737;53.946;27.634;2023-05-10T02:06:45;47.587440;38.790199;63.655396;;
79288;Laerm;68737;53.946;27.634;2023-05-10T02:09:15;46.151566;38.965782;57.660164;;
79288;Laerm;68737;53.946;27.634;2023-05-10T02:11:45;51.269524;41.375229;67.400085;;
79288;Laerm;68737;53.946;27.634;2023-05-10T02:14:15;46.793671;39.617165;59.510223;;
79288;Laerm;68737;53.946;27.634;2023-05-10T02:16:45;47.826981;39.892731;59.953094;;
79288;Laerm;68737;53.946;27.634;2023-05-10T02:19:15;47.395386;40.257027;63.190266;;
79288;Laerm;68737;53.946;27.634;2023-05-10T02:21:45;44.666367;41.092270;55.389221;;
79288;Laerm;68737;53.946;27.634;2023-05-10T02:24:15;46.335777;39.666878;59.884674;;
79288;Laerm;68737;53.946;27.634;2023-05-10T02:26:45;44.528748;38.832611;57.607475;;
79288;Laerm;68737;53.946;27.634;2023-05-10T02:29:15;46.476349;39.049942;56.531197;;
79288;Laerm;68737;53.946;27.634;2023-05-10T02:31:45;46.956154;39.597084;60.546791;;
79288;Laerm;68737;53.946;27.634;2023-05-10T02:34:15;50.142632;41.492432;64.526031;;
79288;Laerm;68737;53.946;27.634;2023-05-10T02:36:45;50.752060;40.816063;63.211502;;
79288;Laerm;68737;53.946;27.634;2023-05-10T02:39:15;47.007401;41.831390;59.472534;;
79288;Laerm;68737;53.946;27.634;2023-05-10T02:41:45;49.765656;40.160370;64.928391;;
79288;Laerm;68737;53.946;27.634;2023-05-10T02:44:17;47.658104;41.135353;59.520012;;
79288;Laerm;68737;53.946;27.634;2023-05-10T02:46:45;48.006737;41.601295;66.560837;;
79288;Laerm;68737;53.946;27.634;2023-05-10T02:49:15;49.041855;40.013031;63.495632;;
79288;Laerm;68737;53.946;27.634;2023-05-10T02:51:47;48.210526;41.303719;64.047256;;
79288;Laerm;68737;53.946;27.634;2023-05-10T02:54:18;50.140648;41.808350;62.430611;;
79288;Laerm;68737;53.946;27.634;2023-05-10T02:56:47;48.965637;41.392342;59.352432;;
79288;Laerm;68737;53.946;27.634;2023-05-10T02:59:15;48.203598;41.382767;61.411163;;
79288;Laerm;68737;53.946;27.634;2023-05-10T03:01:45;48.099915;41.137924;61.317242;;
79288;Laerm;68737;53.946;27.634;2023-05-10T03:04:15;48.237427;39.965149;60.456261;;
79288;Laerm;68737;53.946;27.634;2023-05-10T03:06:45;47.430992;41.456253;60.709869;;
79288;Laerm;68737;53.946;27.634;2023-05-10T03:09:15;47.480370;41.658279;59.000069;;
79288;Laerm;68737;53.946;27.634;2023-05-10T03:11:47;53.198692;42.442505;65.878006;;
79288;Laerm;68737;53.946;27.634;2023-05-10T03:16:46;50.568611;43.086838;64.295074;;
79288;Laerm;68737;53.946;27.634;2023-05-10T03:19:21;49.862206;43.464584;63.976597;;
79288;Laerm;68737;53.946;27.634;2023-05-10T03:21:47;49.071182;42.166557;59.544834;;
79288;Laerm;68737;53.946;27.634;2023-05-10T03:24:15;50.872849;43.399940;59.363075;;
79288;Laerm;68737;53.946;27.634;2023-05-10T03:26:45;50.106018;42.882782;61.157944;;
79288;Laerm;68737;53.946;27.634;2023-05-10T03:29:15;50.962830;42.368240;61.613937;;
79288;Laerm;68737;53.946;27.634;2023-05-10T03:31:45;51.472855;43.161964;63.370846;;
79288;Laerm;68737;53.946;27.634;2023-05-10T03:34:15;50.015045;43.018524;59.652859;;
79288;Laerm;68737;53.946;27.634;2023-05-10T03:36:45;52.818626;43.814629;64.031311;;
79288;Laerm;68737;53.946;27.634;2023-05-10T03:39:15;51.359093;43.550743;65.740280;;
79288;Laerm;68737;53.946;27.634;2023-05-10T03:41:45;53.965157;44.242004;67.601082;;
79288;Laerm;68737;53.946;27.634;2023-05-10T03:44:15;50.911987;43.197205;61.797623;;
79288;Laerm;68737;53.946;27.634;2023-05-10T03:46:45;50.940575;44.845657;59.026131;;
79288;Laerm;68737;53.946;27.634;2023-05-10T03:49:16;50.382912;41.813637;61.855953;;
79288;Laerm;68737;53.946;27.634;2023-05-10T03:51:45;52.772827;44.501762;63.242565;;
79288;Laerm;68737;53.946;27.634;2023-05-10T03:54:15;51.752426;43.286667;62.117798;;
79288;Laerm;68737;53.946;27.634;2023-05-10T03:56:45;52.689316;44.012619;68.679840;;
79288;Laerm;68737;53.946;27.634;2023-05-10T03:59:15;52.851891;41.378410;72.346016;;
79288;Laerm;68737;53.946;27.634;2023-05-10T04:01:45;50.646179;42.554146;59.268272;;
79288;Laerm;68737;53.946;27.634;2023-05-10T04:04:15;51.685356;42.877960;61.094559;;
79288;Laerm;68737;53.946;27.634;2023-05-10T04:06:45;50.798401;42.666275;61.268150;;
79288;Laerm;68737;53.946;27.634;2023-05-10T04:09:15;52.697372;43.917259;61.607754;;
79288;Laerm;68737;53.946;27.634;2023-05-10T04:11:45;52.934486;42.964195;63.181194;;
79288;Laerm;68737;53.946;27.634;2023-05-10T04:14:15;54.325722;45.839668;63.799656;;
79288;Laerm;68737;53.946;27.634;2023-05-10T04:16:45;54.037621;43.137054;62.326023;;
79288;Laerm;68737;53.946;27.634;2023-05-10T04:19:15;54.354965;44.931129;61.492577;;
79288;Laerm;68737;53.946;27.634;2023-05-10T04:21:45;53.130142;44.979408;59.383984;;
79288;Laerm;68737;53.946;27.634;2023-05-10T04:24:15;52.409584;43.812653;62.344894;;
79288;Laerm;68737;53.946;27.634;2023-05-10T04:26:45;54.754089;45.622543;73.385040;;
79288;Laerm;68737;53.946;27.634;2023-05-10T04:29:15;55.630333;45.472702;68.264709;;
79288;Laerm;68737;53.946;27.634;2023-05-10T04:31:45;53.724709;44.988449;65.503540;;
79288;Laerm;68737;53.946;27.634;2023-05-10T04:34:15;54.762016;45.132240;66.498978;;
79288;Laerm;68737;53.946;27.634;2023-05-10T04:36:45;53.238762;44.084702;61.401360;;
79288;Laerm;68737;53.946;27.634;2023-05-10T04:39:15;52.627510;43.986664;66.165665;;
79288;Laerm;68737;53.946;27.634;2023-05-10T04:41:45;53.732025;44.384033;68.976318;;
79288;Laerm;68737;53.946;27.634;2023-05-10T04:44:15;54.581772;43.115227;71.713135;;
79288;Laerm;68737;53.946;27.634;2023-05-10T04:46:45;53.972229;44.589584;64.263069;;
79288;Laerm;68737;53.946;27.634;2023-05-10T04:49:15;54.572914;44.292892;63.113499;;
79288;Laerm;68737;53.946;27.634;2023-05-10T04:51:45;54.633720;45.438248;62.437355;;
79288;Laerm;68737;53.946;27.634;2023-05-10T04:54:15;53.618286;46.568329;60.640350;;
79288;Laerm;68737;53.946;27.634;2023-05-10T04:56:45;54.705002;45.731964;61.767849;;
79288;Laerm;68737;53.946;27.634;2023-05-10T04:59:15;54.251442;46.371544;64.177917;;
79288;Laerm;68737;53.946;27.634;2023-05-10T05:01:45;54.019310;48.214401;62.216282;;
79288;Laerm;68737;53.946;27.634;2023-05-10T05:04:15;53.371956;46.238197;61.922600;;
79288;Laerm;68737;53.946;27.634;2023-05-10T05:06:45;55.071968;47.359192;64.087982;;
79288;Laerm;68737;53.946;27.634;2023-05-10T05:09:15;55.309120;47.154190;63.209946;;
79288;Laerm;68737;53.946;27.634;2023-05-10T05:11:45;57.582130;47.923882;69.055069;;
79288;Laerm;68737;53.946;27.634;2023-05-10T05:14:15;54.073479;45.379219;60.108932;;
79288;Laerm;68737;53.946;27.634;2023-05-10T05:16:45;55.612244;45.736786;63.153049;;
79288;Laerm;68737;53.946;27.634;2023-05-10T05:19:15;56.416008;46.678871;66.905807;;
79288;Laerm;68737;53.946;27.634;2023-05-10T05:21:45;54.806015;47.848114;62.260231;;
79288;Laerm;68737;53.946;27.634;2023-05-10T05:24:15;55.501793;47.643364;64.319473;;
79288;Laerm;68737;53.946;27.634;2023-05-10T05:26:45;56.982346;48.207527;73.039276;;
79288;Laerm;68737;53.946;27.634;2023-05-10T05:29:15;56.842323;49.219536;69.202423;;
79288;Laerm;68737;53.946;27.634;2023-05-10T05:31:45;56.151138;47.243507;64.574120;;
79288;Laerm;68737;53.946;27.634;2023-05-10T05:34:15;59.713413;47.069099;73.863281;;
79288;Laerm;68737;53.946;27.634;2023-05-10T05:36:45;58.626465;49.143585;70.153572;;
79288;Laerm;68737;53.946;27.634;2023-05-10T05:39:15;57.524353;47.295433;69.614182;;
79288;Laerm;68737;53.946;27.634;2023-05-10T05:41:45;58.187874;51.655418;71.503662;;
79288;Laerm;68737;53.946;27.634;2023-05-10T05:44:15;57.507164;49.318787;69.711075;;
79288;Laerm;68737;53.946;27.634;2023-05-10T05:46:48;55.714119;48.049240;61.970070;;
79288;Laerm;68737;53.946;27.634;2023-05-10T05:49:15;58.900063;49.113060;75.051323;;
79288;Laerm;68737;53.946;27.634;2023-05-10T05:51:45;58.251381;49.853439;67.584549;;
79288;Laerm;68737;53.946;27.634;2023-05-10T05:54:15;61.995178;44.603600;73.729385;;
79288;Laerm;68737;53.946;27.634;2023-05-10T05:56:45;65.600288;50.207207;75.884979;;
79288;Laerm;68737;53.946;27.634;2023-05-10T05:59:15;54.901985;46.722298;62.617138;;
79288;Laerm;68737;53.946;27.634;2023-05-10T06:01:45;61.970806;47.941933;79.293640;;
79288;Laerm;68737;53.946;27.634;2023-05-10T06:04:15;57.496254;46.899643;67.754547;;
79288;Laerm;68737;53.946;27.634;2023-05-10T06:06:45;55.772202;47.546928;66.388092;;
79288;Laerm;68737;53.946;27.634;2023-05-10T06:09:15;57.513756;44.908463;68.994690;;
79288;Laerm;68737;53.946;27.634;2023-05-10T06:11:45;54.902245;46.530357;62.388485;;
79288;Laerm;68737;53.946;27.634;2023-05-10T06:14:15;54.076378;46.002991;62.559113;;
79288;Laerm;68737;53.946;27.634;2023-05-10T06:16:45;56.437553;49.852104;65.071777;;
79288;Laerm;68737;53.946;27.634;2023-05-10T06:19:15;54.680840;44.954567;67.193657;;
79288;Laerm;68737;53.946;27.634;2023-05-10T06:21:45;55.562614;46.396996;64.768478;;
79288;Laerm;68737;53.946;27.634;2023-05-10T06:24:15;55.164841;44.414017;65.960182;;
79288;Laerm;68737;53.946;27.634;2023-05-10T06:26:45;57.242859;44.138885;71.164215;;
79288;Laerm;68737;53.946;27.634;2023-05-10T06:29:15;55.638939;43.616447;67.808884;;
79288;Laerm;68737;53.946;27.634;2023-05-10T06:31:45;55.384712;45.267464;63.665714;;
79288;Laerm;68737;53.946;27.634;2023-05-10T06:34:15;55.301163;45.212044;67.540863;;
79288;Laerm;68737;53.946;27.634;2023-05-10T06:36:45;52.759743;44.089996;64.345673;;
79288;Laerm;68737;53.946;27.634;2023-05-10T06:39:15;54.945312;44.583366;65.105797;;
79288;Laerm;68737;53.946;27.634;2023-05-10T06:41:45;53.707413;45.434731;62.658451;;
79288;Laerm;68737;53.946;27.634;2023-05-10T06:44:15;54.321968;45.103767;66.908058;;
79288;Laerm;68737;53.946;27.634;2023-05-10T06:46:45;56.015625;48.372856;63.377979;;
79288;Laerm;68737;53.946;27.634;2023-05-10T06:49:15;54.394569;46.769234;61.476151;;
79288;Laerm;68737;53.946;27.634;2023-05-10T06:51:45;54.315407;46.997719;62.397625;;
79288;Laerm;68737;53.946;27.634;2023-05-10T06:54:15;56.007561;48.216454;68.158356;;
79288;Laerm;68737;53.946;27.634;2023-05-10T06:56:45;53.659370;44.325577;60.452869;;
79288;Laerm;68737;53.946;27.634;2023-05-10T06:59:15;55.678307;47.736656;75.815872;;
79288;Laerm;68737;53.946;27.634;2023-05-10T07:01:45;52.897499;44.511673;61.879669;;
79288;Laerm;68737;53.946;27.634;2023-05-10T07:04:15;53.550888;43.876923;61.997391;;
79288;Laerm;68737;53.946;27.634;2023-05-10T07:06:45;54.442688;45.910355;69.876144;;
79288;Laerm;68737;53.946;27.634;2023-05-10T07:09:15;55.386902;45.365471;65.014328;;
79288;Laerm;68737;53.946;27.634;2023-05-10T07:11:45;57.187569;47.342590;72.291664;;
79288;Laerm;68737;53.946;27.634;2023-05-10T07:14:15;53.880653;46.503242;72.368896;;
79288;Laerm;68737;53.946;27.634;2023-05-10T07:16:45;59.033516;47.793472;70.624008;;
79288;Laerm;68737;53.946;27.634;2023-05-10T07:19:15;53.828850;45.284904;62.161304;;
79288;Laerm;68737;53.946;27.634;2023-05-10T07:21:45;55.268730;45.090065;71.401764;;
79288;Laerm;68737;53.946;27.634;2023-05-10T07:24:15;52.982658;44.277283;61.664478;;
79288;Laerm;68737;53.946;27.634;2023-05-10T07:26:45;55.857323;44.836479;71.349701;;
79288;Laerm;68737;53.946;27.634;2023-05-10T07:29:15;54.210564;43.695480;73.303162;;
79288;Laerm;68737;53.946;27.634;2023-05-10T07:31:45;54.551201;45.425224;63.520031;;
79288;Laerm;68737;53.946;27.634;2023-05-10T07:34:15;53.664986;46.418427;63.240334;;
79288;Laerm;68737;53.946;27.634;2023-05-10T07:36:45;55.548622;43.513565;69.283035;;
79288;Laerm;68737;53.946;27.634;2023-05-10T07:39:15;54.089218;44.379761;64.766006;;
79288;Laerm;68737;53.946;27.634;2023-05-10T07:41:45;54.913597;45.149475;62.649857;;
79288;Laerm;68737;53.946;27.634;2023-05-10T07:44:15;52.174660;44.456978;59.641140;;
79288;Laerm;68737;53.946;27.634;2023-05-10T07:46:45;54.464264;45.863525;68.059967;;
79288;Laerm;68737;53.946;27.634;2023-05-10T07:49:15;53.304932;45.641937;59.003471;;
79288;Laerm;68737;53.946;27.634;2023-05-10T07:51:45;53.877350;43.771187;60.530499;;
79288;Laerm;68737;53.946;27.634;2023-05-10T07:54:15;54.771309;43.632271;65.464577;;
79288;Laerm;68737;53.946;27.634;2023-05-10T07:56:45;53.472450;44.867531;61.133385;;
79288;Laerm;68737;53.946;27.634;2023-05-10T07:59:16;53.667068;44.676933;61.491184;;
79288;Laerm;68737;53.946;27.634;2023-05-10T08:01:45;54.921783;46.967834;61.814617;;
79288;Laerm;68737;53.946;27.634;2023-05-10T08:04:15;54.342224;45.783333;64.414719;;
79288;Laerm;68737;53.946;27.634;2023-05-10T08:06:45;52.644478;43.956512;64.036232;;
79288;Laerm;68737;53.946;27.634;2023-05-10T08:09:15;53.614120;45.404778;61.195969;;
79288;Laerm;68737;53.946;27.634;2023-05-10T08:11:45;56.375099;46.958107;68.006973;;
79288;Laerm;68737;53.946;27.634;2023-05-10T08:14:15;53.559250;46.506447;60.552223;;
79288;Laerm;68737;53.946;27.634;2023-05-10T08:16:45;53.396080;46.293007;62.607090;;
79288;Laerm;68737;53.946;27.634;2023-05-10T08:19:15;53.180397;46.799957;60.793579;;
79288;Laerm;68737;53.946;27.634;2023-05-10T08:21:45;56.991585;47.428284;66.145432;;
79288;Laerm;68737;53.946;27.634;2023-05-10T08:24:15;57.485657;48.789680;67.795685;;
79288;Laerm;68737;53.946;27.634;2023-05-10T08:26:45;56.023102;47.676384;68.624908;;
79288;Laerm;68737;53.946;27.634;2023-05-10T08:29:15;54.084885;45.156113;62.674858;;
79288;Laerm;68737;53.946;27.634;2023-05-10T08:31:45;52.665504;44.701973;62.901604;;
79288;Laerm;68737;53.946;27.634;2023-05-10T08:34:15;54.087112;44.200935;61.661976;;
79288;Laerm;68737;53.946;27.634;2023-05-10T08:36:45;56.673302;46.430199;68.979759;;
79288;Laerm;68737;53.946;27.634;2023-05-10T08:39:15;55.261940;45.943016;63.831841;;
79288;Laerm;68737;53.946;27.634;2023-05-10T08:41:45;53.563828;44.995476;61.942780;;
79288;Laerm;68737;53.946;27.634;2023-05-10T08:44:15;51.984512;43.225861;60.239738;;
79288;Laerm;68737;53.946;27.634;2023-05-10T08:46:45;53.345367;44.916641;60.699783;;
79288;Laerm;68737;53.946;27.634;2023-05-10T08:49:16;53.250229;44.180191;63.172081;;
79288;Laerm;68737;53.946;27.634;2023-05-10T08:51:47;53.555397;44.230278;66.228889;;
79288;Laerm;68737;53.946;27.634;2023-05-10T08:54:15;54.477989;46.657867;70.754684;;
79288;Laerm;68737;53.946;27.634;2023-05-10T08:56:45;54.702957;46.278664;61.571404;;
79288;Laerm;68737;53.946;27.634;2023-05-10T08:59:15;53.177704;46.263680;64.631577;;
79288;Laerm;68737;53.946;27.634;2023-05-10T09:01:45;52.723503;44.661751;63.899498;;
79288;Laerm;68737;53.946;27.634;2023-05-10T09:04:15;54.992775;45.620354;64.623123;;
79288;Laerm;68737;53.946;27.634;2023-05-10T09:06:45;56.298965;47.467102;68.209557;;
79288;Laerm;68737;53.946;27.634;2023-05-10T09:09:15;54.705635;46.790817;65.161072;;
79288;Laerm;68737;53.946;27.634;2023-05-10T09:11:45;59.787544;48.447571;71.792778;;
79288;Laerm;68737;53.946;27.634;2023-05-10T09:14:15;54.880363;45.337440;65.254959;;
79288;Laerm;68737;53.946;27.634;2023-05-10T09:16:45;54.937752;44.420273;68.079468;;
79288;Laerm;68737;53.946;27.634;2023-05-10T09:19:15;54.418236;42.639572;64.284386;;
79288;Laerm;68737;53.946;27.634;2023-05-10T09:21:45;54.164230;44.753532;61.963730;;
79288;Laerm;68737;53.946;27.634;2023-05-10T09:24:15;55.094635;44.217155;67.408363;;
79288;Laerm;68737;53.946;27.634;2023-05-10T09:26:45;54.930588;45.715759;64.830421;;
79288;Laerm;68737;53.946;27.634;2023-05-10T09:29:15;53.717178;44.676529;61.908817;;
79288;Laerm;68737;53.946;27.634;2023-05-10T09:31:46;55.334900;47.381882;65.781136;;
79288;Laerm;68737;53.946;27.634;2023-05-10T09:34:15;56.043465;46.979095;71.223480;;
79288;Laerm;68737;53.946;27.634;2023-05-10T09:39:15;54.962044;45.584839;64.463089;;
79288;Laerm;68737;53.946;27.634;2023-05-10T09:41:45;54.737617;45.836800;62.423603;;
79288;Laerm;68737;53.946;27.634;2023-05-10T09:44:16;52.886253;45.915573;66.334427;;
79288;Laerm;68737;53.946;27.634;2023-05-10T09:46:48;53.651390;45.371666;61.797924;;
79288;Laerm;68737;53.946;27.634;2023-05-10T09:49:15;54.083527;45.729103;69.927551;;
79288;Laerm;68737;53.946;27.634;2023-05-10T09:51:45;52.896706;43.750786;63.485249;;
79288;Laerm;68737;53.946;27.634;2023-05-10T09:54:15;53.728790;44.378036;60.827332;;
79288;Laerm;68737;53.946;27.634;2023-05-10T09:56:45;54.105865;45.358215;68.644409;;
79288;Laerm;68737;53.946;27.634;2023-05-10T09:59:15;54.294594;42.579826;70.450645;;
79288;Laerm;68737;53.946;27.634;2023-05-10T10:04:15;53.264160;43.796494;63.622150;;
79288;Laerm;68737;53.946;27.634;2023-05-10T10:06:45;54.374802;45.336250;65.908768;;
79288;Laerm;68737;53.946;27.634;2023-05-10T10:09:15;55.623184;46.103615;68.218887;;
79288;Laerm;68737;53.946;27.634;2023-05-10T10:11:45;54.742134;46.936806;69.312393;;
79288;Laerm;68737;53.946;27.634;2023-05-10T10:14:15;53.541039;44.921997;64.266365;;
79288;Laerm;68737;53.946;27.634;2023-05-10T10:16:45;54.552856;45.505692;60.548962;;
79288;Laerm;68737;53.946;27.634;2023-05-10T10:19:15;54.371208;46.182220;66.861130;;
79288;Laerm;68737;53.946;27.634;2023-05-10T10:21:45;54.568787;46.810463;63.142361;;
79288;Laerm;68737;53.946;27.634;2023-05-10T10:24:15;57.942955;47.623238;71.169785;;
79288;Laerm;68737;53.946;27.634;2023-05-10T10:26:45;59.953049;44.891243;71.711983;;
79288;Laerm;68737;53.946;27.634;2023-05-10T10:31:46;54.497223;45.258354;63.364807;;
79288;Laerm;68737;53.946;27.634;2023-05-10T10:36:45;54.364868;45.868736;66.390656;;
79288;Laerm;68737;53.946;27.634;2023-05-10T10:39:15;55.844231;45.126503;68.642410;;
79288;Laerm;68737;53.946;27.634;2023-05-10T10:49:15;55.397354;46.075974;62.655617;;
79288;Laerm;68737;53.946;27.634;2023-05-10T10:52:12;52.757759;43.529465;62.365360;;
79288;Laerm;68737;53.946;27.634;2023-05-10T10:54:21;54.831520;45.859207;63.031830;;
79288;Laerm;68737;53.946;27.634;2023-05-10T10:56:45;52.046204;44.135490;60.078251;;
79288;Laerm;68737;53.946;27.634;2023-05-10T10:59:23;55.334557;44.529419;65.815857;;
79288;Laerm;68737;53.946;27.634;2023-05-10T11:01:45;55.831451;43.104965;66.986450;;
79288;Laerm;68737;53.946;27.634;2023-05-10T11:06:45;55.059891;47.332008;67.367783;;
79288;Laerm;68737;53.946;27.634;2023-05-10T11:09:15;53.551086;45.966492;66.253403;;
79288;Laerm;68737;53.946;27.634;2023-05-10T11:14:15;54.328049;45.463951;65.004486;;
79288;Laerm;68737;53.946;27.634;2023-05-10T11:16:45;54.300049;44.904060;62.900673;;
79288;Laerm;68737;53.946;27.634;2023-05-10T11:19:15;53.816734;43.281456;66.232719;;
79288;Laerm;68737;53.946;27.634;2023-05-10T11:21:46;52.403717;43.742203;61.387260;;
79288;Laerm;68737;53.946;27.634;2023-05-10T11:26:45;54.512672;44.959702;64.489334;;
79288;Laerm;68737;53.946;27.634;2023-05-10T11:29:15;54.789902;44.824615;64.764038;;
79288;Laerm;68737;53.946;27.634;2023-05-10T11:31:45;53.130249;43.919991;63.211876;;
79288;Laerm;68737;53.946;27.634;2023-05-10T11:36:45;53.947662;42.663643;62.283470;;
79288;Laerm;68737;53.946;27.634;2023-05-10T11:39:15;53.449547;42.442924;60.612816;;
79288;Laerm;68737;53.946;27.634;2023-05-10T11:41:47;52.304878;43.080605;60.749226;;
79288;Laerm;68737;53.946;27.634;2023-05-10T11:44:15;54.729439;43.857292;67.202118;;
79288;Laerm;68737;53.946;27.634;2023-05-10T11:46:45;52.140175;43.623016;64.769333;;
79288;Laerm;68737;53.946;27.634;2023-05-10T11:49:15;57.166466;47.015289;68.260406;;
79288;Laerm;68737;53.946;27.634;2023-05-10T11:51:45;53.011147;43.175797;63.287430;;
79288;Laerm;68737;53.946;27.634;2023-05-10T11:54:15;54.153046;42.191513;65.315956;;
79288;Laerm;68737;53.946;27.634;2023-05-10T11:56:44;53.503021;45.975967;61.668156;;
79288;Laerm;68737;53.946;27.634;2023-05-10T11:59:15;54.691612;43.382927;63.297615;;
79288;Laerm;68737;53.946;27.634;2023-05-10T12:01:45;55.901001;45.116585;68.804428;;
79288;Laerm;68737;53.946;27.634;2023-05-10T12:04:14;55.170090;43.894180;71.099838;;
79288;Laerm;68737;53.946;27.634;2023-05-10T12:06:45;54.187248;44.729240;67.598686;;
79288;Laerm;68737;53.946;27.634;2023-05-10T12:09:14;53.592186;43.847252;66.087875;;
79288;Laerm;68737;53.946;27.634;2023-05-10T12:11:44;53.498741;45.106239;61.876522;;
79288;Laerm;68737;53.946;27.634;2023-05-10T12:14:15;54.835434;45.545959;63.603577;;
79288;Laerm;68737;53.946;27.634;2023-05-10T12:16:44;55.389725;45.699692;70.324173;;
79288;Laerm;68737;53.946;27.634;2023-05-10T12:19:18;52.669449;44.863106;66.638741;;
79288;Laerm;68737;53.946;27.634;2023-05-10T12:21:44;55.377701;43.949089;66.214142;;
79288;Laerm;68737;53.946;27.634;2023-05-10T12:24:14;54.863564;46.061699;65.494934;;
79288;Laerm;68737;53.946;27.634;2023-05-10T12:26:45;54.928505;44.609978;62.972969;;
79288;Laerm;68737;53.946;27.634;2023-05-10T12:29:15;53.658600;45.645027;61.973412;;
79288;Laerm;68737;53.946;27.634;2023-05-10T12:34:22;53.354027;44.814064;60.926785;;
79288;Laerm;68737;53.946;27.634;2023-05-10T12:36:44;53.179459;45.330818;62.315327;;
79288;Laerm;68737;53.946;27.634;2023-05-10T12:39:14;53.189796;46.473297;63.635334;;
79288;Laerm;68737;53.946;27.634;2023-05-10T12:41:44;53.139359;46.479568;60.419609;;
79288;Laerm;68737;53.946;27.634;2023-05-10T12:44:14;54.056854;46.234695;64.656525;;